Arney, Indiana
Current Conditions -  °F | °C
As of 10:53 AM on Thursday 30 Oct 2014 (Local Time) from KBMG Reporting Station
Clear Clear  
Wind Chill: 45°   Ceiling: Unl
Heat Index: 47°   Visibility: 10mi
Dew Point: 34°   Wind: 5mph
Humidity: 61%   Direction: 100°E
Pressure: 30.17"   Gusts: NA
Location:  39.2107°N, 86.8508°W
Report Text: KBMG 301453Z 10004KT 10SM CLR 08/01 A3017 RMK AO2 SLP218 T00830011 58000
Loading
Personal Weather Stations






























Interactive Weather Map
Tropical Storm Tracking
New forecast layout! Learn more

10-Day Weather Forecast

Advertisements
Track Severe Weather on mobile